White Lake, South Dakota
Current Conditions -  °F | °C
As of 5:15 AM on Sunday 23 Nov 2014 (Local Time) from K9V9 Reporting Station
Overcast Overcast  
Wind Chill: 33°   Ceiling: 4000
Heat Index: 40°   Visibility: 10mi
Dew Point: 36°   Wind: 13mph
Humidity: 83%   Direction: 350°N
Pressure: 29.51"   Gusts: 18mph
Location:  43.73°N, 98.71°W
Report Text: K9V9 231115Z AUTO 35011G16KT 10SM OVC040 05/02 A2951 RMK AO2 T00460020
Loading
Personal Weather Stations






























Interactive Weather Map New forecast layout! Learn more

10-Day Weather Forecast

Advertisements
Track Severe Weather on mobile